Dimitrovgrad, Russia
Current Conditions -  °F | °C
As of 4:00 PM on Friday 28 Nov 2014 (Local Time) from UWLW Reporting Station
Overcast Overcast  
Wind Chill: 13°   Ceiling: 1300
Heat Index: 19°   Visibility: 3mi
Dew Point: 16°   Wind: 4mph
Humidity: 86%   Direction: 290°WNW
Pressure: 30.68"   Gusts: NA
Location:  54.25°N, 49.55°E
Report Text: UWLW 281300Z 29002MPS P5000 OVC013 M07/M09 Q1039 20850250 TEMPOBKN007 RMK QFE773
Loading
Personal Weather Stations






























Interactive Weather Map New forecast layout! Learn more

10-Day Weather Forecast

Advertisements
Track Severe Weather on mobile